createdAt,value
2019-02-25T00:00:50.039Z,57.37
2019-02-25T00:01:50.041Z,57.92
2019-02-25T00:02:50.024Z,57.92
2019-02-25T00:03:50.019Z,58.09
2019-02-25T00:04:50.019Z,58.44
2019-02-25T00:05:49.979Z,58.33
2019-02-25T00:06:49.974Z,58.12
2019-02-25T00:07:49.959Z,58.33
2019-02-25T00:08:49.980Z,57.71
2019-02-25T00:09:49.953Z,58.23
2019-02-25T00:10:49.926Z,58.33
2019-02-25T00:11:49.947Z,58.12
2019-02-25T00:12:49.914Z,58.33
2019-02-25T00:13:49.894Z,57.81
2019-02-25T00:14:49.913Z,57.60
2019-02-25T00:15:49.876Z,57.71
2019-02-25T00:16:49.857Z,58.33
2019-02-25T00:17:49.861Z,57.71
2019-02-25T00:18:49.843Z,57.63
2019-02-25T00:19:49.830Z,57.63
2019-02-25T00:20:49.835Z,57.76
2019-02-25T00:21:49.810Z,57.84
2019-02-25T00:22:49.793Z,58.07
2019-02-25T00:23:49.794Z,58.25
2019-02-25T00:24:49.775Z,57.97
2019-02-25T00:25:49.781Z,58.46
2019-02-25T00:26:49.756Z,58.07
2019-02-25T00:27:49.737Z,58.28
2019-02-25T00:28:49.783Z,58.38
2019-02-25T00:29:49.729Z,58.69
2019-02-25T00:30:49.745Z,58.18
2019-02-25T00:31:49.697Z,58.69
2019-02-25T00:32:49.691Z,58.69
2019-02-25T00:33:49.682Z,58.62
2019-02-25T00:34:49.675Z,58.69
2019-02-25T00:35:49.681Z,58.48
2019-02-25T00:36:49.668Z,58.07
2019-02-25T00:37:49.629Z,57.56
2019-02-25T00:38:49.644Z,57.35
2019-02-25T00:39:49.609Z,56.96
2019-02-25T00:40:49.625Z,57.06
2019-02-25T00:41:49.610Z,57.45
2019-02-25T00:42:49.600Z,57.87
2019-02-25T00:43:49.573Z,58.00
2019-02-25T00:44:49.562Z,58.62
2019-02-25T00:45:49.598Z,59.24
2019-02-25T00:46:49.532Z,58.10
2019-02-25T00:47:49.525Z,58.10
2019-02-25T00:48:49.513Z,58.31
2019-02-25T00:49:49.508Z,58.62
2019-02-25T00:50:49.505Z,58.62
2019-02-25T00:51:49.500Z,58.51
2019-02-25T00:52:49.465Z,58.62
2019-02-25T00:53:49.458Z,59.03
2019-02-25T00:54:49.450Z,58.93
2019-02-25T00:55:49.465Z,59.03
2019-02-25T00:56:49.422Z,59.89
2019-02-25T00:57:49.410Z,59.99
2019-02-25T00:58:49.408Z,60.20
2019-02-25T00:59:49.398Z,59.37
2019-02-25T01:00:49.377Z,59.16
2019-02-25T01:01:49.396Z,59.37
2019-02-25T01:02:49.360Z,59.37
2019-02-25T01:03:49.353Z,59.16
2019-02-25T01:04:49.332Z,59.47
2019-02-25T01:05:49.356Z,59.58
2019-02-25T01:06:49.319Z,59.47
2019-02-25T01:07:49.305Z,59.68
2019-02-25T01:08:49.292Z,60.72
2019-02-25T01:09:49.284Z,60.93
2019-02-25T01:10:49.279Z,60.85
2019-02-25T01:11:49.283Z,60.85
2019-02-25T01:12:49.258Z,61.26
2019-02-25T01:13:49.243Z,61.05
2019-02-25T01:14:49.233Z,60.95
2019-02-25T01:15:49.260Z,61.05
2019-02-25T01:16:49.209Z,61.55
2019-02-25T01:17:49.198Z,61.47
2019-02-25T01:18:49.182Z,61.05
2019-02-25T01:19:49.173Z,60.53
2019-02-25T01:20:49.165Z,61.16
2019-02-25T01:21:49.173Z,61.68
2019-02-25T01:22:49.141Z,61.57
2019-02-25T01:23:49.148Z,61.36
2019-02-25T01:24:49.119Z,61.36
2019-02-25T01:25:49.132Z,61.24
2019-02-25T01:26:49.119Z,61.13
2019-02-25T01:27:49.146Z,60.93
2019-02-25T01:28:49.079Z,60.95
2019-02-25T01:29:49.059Z,60.85
2019-02-25T01:30:49.082Z,60.95
2019-02-25T01:31:49.047Z,60.95
2019-02-25T01:32:49.033Z,60.64
2019-02-25T01:33:49.043Z,60.74
2019-02-25T01:34:49.012Z,60.12
2019-02-25T01:35:49.004Z,59.50
2019-02-25T01:36:49.033Z,59.30
2019-02-25T01:37:48.983Z,59.19
2019-02-25T01:38:48.977Z,58.67
2019-02-25T01:39:48.975Z,58.47
2019-02-25T01:40:48.972Z,59.40
2019-02-25T01:41:48.973Z,58.57
2019-02-25T01:42:48.923Z,59.30
2019-02-25T01:43:48.917Z,59.30
2019-02-25T01:44:48.901Z,59.61
2019-02-25T01:45:48.888Z,59.61
2019-02-25T01:46:48.903Z,60.25
2019-02-25T01:47:48.880Z,60.33
2019-02-25T01:48:48.857Z,60.53
2019-02-25T01:49:48.846Z,60.67
2019-02-25T01:50:48.838Z,60.85
2019-02-25T01:51:48.866Z,61.29
2019-02-25T01:52:48.816Z,61.19
2019-02-25T01:53:48.804Z,61.40
2019-02-25T01:54:48.795Z,61.08
2019-02-25T01:55:48.786Z,61.43
2019-02-25T01:56:48.775Z,61.91
2019-02-25T01:57:48.784Z,62.02
2019-02-25T01:58:48.748Z,62.33
2019-02-25T01:59:48.741Z,62.23
2019-02-25T02:00:48.729Z,61.71
2019-02-25T02:01:48.729Z,61.50
2019-02-25T02:02:48.721Z,61.08
2019-02-25T02:03:48.693Z,60.98
2019-02-25T02:04:48.682Z,60.46
2019-02-25T02:05:48.672Z,60.67
2019-02-25T02:06:48.664Z,60.36
2019-02-25T02:07:48.689Z,60.88
2019-02-25T02:08:48.636Z,61.50
2019-02-25T02:09:48.625Z,61.91
2019-02-25T02:10:48.625Z,62.23
2019-02-25T02:11:48.604Z,62.02
2019-02-25T02:12:48.595Z,62.12
2019-02-25T02:13:48.610Z,62.23
2019-02-25T02:14:48.573Z,62.33
2019-02-25T02:15:48.575Z,62.46
2019-02-25T02:16:48.557Z,62.95
2019-02-25T02:17:48.541Z,62.74
2019-02-25T02:18:48.560Z,62.05
2019-02-25T02:19:48.539Z,62.77
2019-02-25T02:20:48.512Z,62.36
2019-02-25T02:21:48.495Z,62.77
2019-02-25T02:22:48.487Z,62.57
2019-02-25T02:23:48.529Z,62.57
2019-02-25T02:24:48.473Z,62.67
2019-02-25T02:25:48.453Z,62.36
2019-02-25T02:26:48.440Z,62.26
2019-02-25T02:27:48.435Z,62.26
2019-02-25T02:28:48.440Z,62.36
2019-02-25T02:29:48.437Z,62.36
2019-02-25T02:30:48.405Z,62.15
2019-02-25T02:31:48.417Z,61.63
2019-02-25T02:32:48.416Z,61.84
2019-02-25T02:33:48.390Z,61.63
2019-02-25T02:34:48.365Z,61.32
2019-02-25T02:35:48.347Z,61.74
2019-02-25T02:36:48.339Z,62.05
2019-02-25T02:37:48.329Z,62.57
2019-02-25T02:38:48.310Z,61.74
2019-02-25T02:39:48.350Z,61.97
2019-02-25T02:40:48.297Z,62.59
2019-02-25T02:41:48.282Z,62.59
2019-02-25T02:42:48.281Z,63.01
2019-02-25T02:43:48.262Z,63.01
2019-02-25T02:44:48.251Z,63.19
2019-02-25T02:45:48.266Z,62.70
2019-02-25T02:46:48.230Z,62.46
2019-02-25T02:47:48.217Z,62.77
2019-02-25T02:48:48.212Z,62.18
2019-02-25T02:49:48.226Z,62.18
2019-02-25T02:50:48.189Z,62.18
2019-02-25T02:51:48.202Z,62.88
2019-02-25T02:52:48.169Z,62.59
2019-02-25T02:53:48.163Z,62.90
2019-02-25T02:54:48.151Z,63.84
2019-02-25T02:55:48.162Z,64.28
2019-02-25T02:56:48.130Z,64.70
2019-02-25T02:57:48.114Z,64.80
2019-02-25T02:58:48.106Z,64.80
2019-02-25T02:59:48.095Z,64.70
2019-02-25T03:00:48.104Z,64.80
2019-02-25T03:01:48.070Z,65.32
2019-02-25T03:02:48.066Z,64.80
2019-02-25T03:03:48.047Z,64.90
2019-02-25T03:04:48.062Z,65.32
2019-02-25T03:05:48.037Z,65.63
2019-02-25T03:06:48.009Z,65.87
2019-02-25T03:07:48.017Z,65.63
2019-02-25T03:08:47.985Z,66.05
2019-02-25T03:09:47.976Z,65.45
2019-02-25T03:10:48.001Z,65.97
2019-02-25T03:11:47.955Z,65.11
2019-02-25T03:12:47.947Z,64.70
2019-02-25T03:13:47.938Z,65.32
2019-02-25T03:14:47.921Z,65.01
2019-02-25T03:15:47.940Z,65.73
2019-02-25T03:16:47.906Z,64.70
2019-02-25T03:17:47.890Z,64.59
2019-02-25T03:18:47.885Z,64.90
2019-02-25T03:19:47.882Z,65.01
2019-02-25T03:20:47.896Z,64.49
2019-02-25T03:21:47.849Z,65.32
2019-02-25T03:22:47.857Z,64.80
2019-02-25T03:23:47.835Z,65.42
2019-02-25T03:24:47.818Z,65.01
2019-02-25T03:25:47.811Z,64.59
2019-02-25T03:26:47.826Z,64.90
2019-02-25T03:27:47.797Z,65.84
2019-02-25T03:28:47.772Z,65.84
2019-02-25T03:29:47.766Z,65.66
2019-02-25T03:32:04.212Z,65.56
2019-02-25T03:33:03.840Z,65.53
2019-02-25T03:34:03.861Z,65.56
2019-02-25T03:35:03.802Z,65.97
2019-02-25T03:36:03.803Z,65.84
2019-02-25T03:37:03.787Z,65.63
2019-02-25T03:38:03.836Z,65.94
2019-02-25T03:39:03.803Z,65.53
2019-02-25T03:40:03.758Z,65.94
2019-02-25T03:41:03.734Z,65.73
2019-02-25T03:42:03.761Z,65.87
2019-02-25T03:43:03.723Z,65.22
2019-02-25T03:44:03.722Z,65.32
2019-02-25T03:45:03.698Z,65.73
2019-02-25T03:46:03.669Z,65.45
2019-02-25T03:47:03.750Z,64.39
2019-02-25T03:48:03.669Z,64.28
2019-02-25T03:49:03.667Z,64.39
2019-02-25T03:50:03.684Z,63.45
2019-02-25T03:51:03.623Z,64.39
2019-02-25T03:52:03.660Z,64.39
2019-02-25T03:53:03.669Z,64.94
2019-02-25T03:54:03.670Z,64.31
2019-02-25T03:55:03.595Z,64.62
2019-02-25T03:56:03.579Z,64.11
2019-02-25T03:57:03.580Z,65.25
2019-02-25T03:58:03.557Z,65.77
2019-02-25T03:59:03.535Z,66.00
2019-02-25T04:00:03.544Z,66.08
2019-02-25T04:01:03.517Z,65.35
2019-02-25T04:02:03.498Z,64.94
2019-02-25T04:03:03.556Z,64.00
2019-02-25T04:04:03.507Z,64.24
2019-02-25T04:05:03.487Z,64.94
2019-02-25T04:06:03.473Z,64.73
2019-02-25T04:07:03.459Z,65.04
2019-02-25T04:08:03.499Z,65.14
2019-02-25T04:09:03.474Z,64.42
2019-02-25T04:10:03.443Z,65.35
2019-02-25T04:11:03.411Z,64.31
2019-02-25T04:12:03.408Z,64.76
2019-02-25T04:13:03.471Z,65.69
2019-02-25T04:14:03.435Z,65.59
2019-02-25T04:15:03.367Z,65.80
2019-02-25T04:16:03.357Z,65.69
2019-02-25T04:17:03.348Z,65.66
2019-02-25T04:18:03.333Z,65.48
2019-02-25T04:19:03.371Z,65.90
2019-02-25T04:20:03.334Z,65.97
2019-02-25T04:21:03.321Z,65.80
2019-02-25T04:22:03.314Z,65.48
2019-02-25T04:23:03.312Z,65.07
2019-02-25T04:24:03.315Z,64.86
2019-02-25T04:25:03.268Z,64.65
2019-02-25T04:26:03.246Z,64.97
2019-02-25T04:27:03.253Z,64.65
2019-02-25T04:28:03.369Z,64.45
2019-02-25T04:29:03.190Z,64.86
2019-02-25T04:30:03.210Z,64.65
2019-02-25T04:31:03.215Z,64.79
2019-02-25T04:32:03.225Z,65.52
2019-02-25T04:33:03.173Z,65.72
2019-02-25T04:34:03.213Z,64.86
2019-02-25T04:35:03.158Z,64.97
2019-02-25T04:36:03.166Z,64.97
2019-02-25T04:37:03.151Z,64.89
2019-02-25T04:38:03.187Z,64.34
2019-02-25T04:39:03.130Z,65.07
2019-02-25T04:40:03.199Z,66.00
2019-02-25T04:41:03.113Z,65.93
2019-02-25T04:42:03.128Z,65.59
2019-02-25T04:43:03.103Z,64.89
2019-02-25T04:44:03.138Z,64.65
2019-02-25T04:45:03.079Z,63.85
2019-02-25T04:46:03.062Z,64.76
2019-02-25T04:47:03.041Z,64.69
2019-02-25T04:48:03.101Z,65.41
2019-02-25T04:49:03.031Z,64.89
2019-02-25T04:50:03.010Z,66.03
2019-02-25T04:51:02.978Z,66.03
2019-02-25T04:52:02.997Z,65.72
2019-02-25T04:53:02.955Z,65.72
2019-02-25T04:54:02.951Z,66.14
2019-02-25T04:55:02.972Z,66.35
2019-02-25T04:56:02.942Z,66.80
2019-02-25T04:57:02.912Z,66.69
2019-02-25T04:58:02.906Z,66.27
2019-02-25T04:59:03.082Z,66.24
2019-02-25T05:00:02.877Z,65.65
2019-02-25T05:01:02.880Z,65.72
2019-02-25T05:02:02.870Z,65.62
2019-02-25T05:03:02.857Z,65.72
2019-02-25T05:04:02.838Z,65.72
2019-02-25T05:05:02.859Z,66.03
2019-02-25T05:06:02.848Z,66.03
2019-02-25T05:07:02.815Z,66.35
2019-02-25T05:08:02.818Z,66.56
2019-02-25T05:09:02.792Z,66.69
2019-02-25T05:10:02.845Z,66.35
2019-02-25T05:11:02.819Z,66.24
2019-02-25T05:12:02.780Z,66.24
2019-02-25T05:13:02.760Z,66.27
2019-02-25T05:14:02.757Z,66.69
2019-02-25T05:15:02.710Z,66.17
2019-02-25T05:16:02.728Z,66.48
2019-02-25T05:17:02.684Z,66.48
2019-02-25T05:18:02.785Z,66.69
2019-02-25T05:19:02.681Z,66.80
2019-02-25T05:20:02.670Z,66.59
2019-02-25T05:21:02.657Z,67.11
2019-02-25T05:22:02.689Z,67.21
2019-02-25T05:23:02.651Z,67.00
2019-02-25T05:24:02.656Z,67.11
2019-02-25T05:25:02.627Z,67.03
2019-02-25T05:26:02.723Z,66.90
2019-02-25T05:27:02.580Z,67.00
2019-02-25T05:28:02.572Z,67.11
2019-02-25T05:29:02.562Z,67.63
2019-02-25T05:30:02.561Z,68.15
2019-02-25T05:31:02.583Z,68.07
2019-02-25T05:32:02.533Z,68.28
2019-02-25T05:33:02.527Z,68.28
2019-02-25T05:34:02.508Z,68.18
2019-02-25T05:35:02.498Z,68.07
2019-02-25T05:36:02.563Z,68.04
2019-02-25T05:37:02.476Z,68.25
2019-02-25T05:38:02.493Z,67.52
2019-02-25T05:39:02.478Z,67.55
2019-02-25T05:40:02.447Z,67.00
2019-02-25T05:41:02.491Z,67.11
2019-02-25T05:42:02.430Z,67.00
2019-02-25T05:43:02.418Z,67.00
2019-02-25T05:44:02.429Z,67.11
2019-02-25T05:45:02.392Z,67.35
2019-02-25T05:46:02.387Z,67.14
2019-02-25T05:47:02.427Z,67.21
2019-02-25T05:48:02.390Z,66.90
2019-02-25T05:49:02.376Z,67.32
2019-02-25T05:50:02.333Z,67.21
2019-02-25T05:51:02.351Z,67.11
2019-02-25T05:52:02.313Z,67.11
2019-02-25T05:53:02.296Z,67.32
2019-02-25T05:54:02.298Z,67.11
2019-02-25T05:55:02.324Z,67.24
2019-02-25T05:56:02.302Z,67.11
2019-02-25T05:57:02.252Z,67.14
2019-02-25T05:58:02.259Z,67.11
2019-02-25T05:59:02.238Z,67.73
2019-02-25T06:00:02.286Z,67.73
2019-02-25T06:01:02.251Z,67.52
2019-02-25T06:02:02.212Z,67.55
2019-02-25T06:03:02.194Z,67.76
2019-02-25T06:04:02.181Z,67.73
2019-02-25T06:05:02.191Z,67.55
2019-02-25T06:06:02.217Z,67.76
2019-02-25T06:07:02.215Z,67.32
2019-02-25T06:08:02.161Z,67.11
2019-02-25T06:09:02.171Z,67.21
2019-02-25T06:10:02.116Z,66.48
2019-02-25T06:11:02.101Z,66.80
2019-02-25T06:12:02.116Z,67.24
2019-02-25T06:13:02.127Z,67.66
2019-02-25T06:14:02.067Z,67.55
2019-02-25T06:15:02.080Z,67.55
2019-02-25T06:16:02.069Z,67.14
2019-02-25T06:17:02.069Z,67.35
2019-02-25T06:18:02.061Z,68.28
2019-02-25T06:19:02.019Z,68.18
2019-02-25T06:20:02.013Z,67.97
2019-02-25T06:21:01.991Z,68.28
2019-02-25T06:22:02.056Z,68.38
2019-02-25T06:23:02.014Z,68.07
2019-02-25T06:24:01.964Z,68.49
2019-02-25T06:25:01.984Z,68.70
2019-02-25T06:26:01.982Z,68.60
2019-02-25T06:27:01.965Z,68.38
2019-02-25T06:28:01.996Z,68.80
2019-02-25T06:29:01.923Z,69.01
2019-02-25T06:30:01.888Z,68.49
2019-02-25T06:31:01.961Z,68.70
2019-02-25T06:32:01.887Z,69.43
2019-02-25T06:33:01.902Z,69.43
2019-02-25T06:34:01.842Z,69.53
2019-02-25T06:35:01.850Z,69.43
2019-02-25T06:36:01.811Z,69.22
2019-02-25T06:37:01.805Z,69.64
2019-02-25T06:38:01.810Z,68.91
2019-02-25T06:39:01.851Z,68.70
2019-02-25T06:40:01.793Z,69.32
2019-02-25T06:41:01.769Z,69.43
2019-02-25T06:42:01.785Z,69.53
2019-02-25T06:43:01.814Z,69.53
2019-02-25T06:44:01.724Z,69.12
2019-02-25T06:45:01.723Z,69.53
2019-02-25T06:46:01.706Z,69.74
2019-02-25T06:47:01.725Z,69.92
2019-02-25T06:48:01.754Z,69.53
2019-02-25T06:49:01.709Z,70.15
2019-02-25T06:50:01.674Z,69.95
2019-02-25T06:51:01.670Z,69.84
2019-02-25T06:52:01.671Z,69.50
2019-02-25T06:53:01.666Z,69.92
2019-02-25T06:54:01.659Z,69.95
2019-02-25T06:55:01.613Z,70.05
2019-02-25T06:56:01.594Z,70.23
2019-02-25T06:57:01.650Z,70.12
2019-02-25T06:58:01.585Z,69.71
2019-02-25T06:59:01.553Z,70.02
2019-02-25T07:00:01.577Z,69.95
2019-02-25T07:01:01.524Z,70.33
2019-02-25T07:02:01.595Z,69.92
2019-02-25T07:03:01.501Z,70.12
2019-02-25T07:04:01.514Z,70.02
2019-02-25T07:05:01.527Z,70.02
2019-02-25T07:06:01.472Z,70.23
2019-02-25T07:07:01.460Z,70.09
2019-02-25T07:08:01.545Z,70.23
2019-02-25T07:09:01.461Z,70.33
2019-02-25T07:10:01.428Z,70.23
2019-02-25T07:11:01.432Z,69.89
2019-02-25T07:12:01.420Z,70.09
2019-02-25T07:13:01.403Z,69.57
2019-02-25T07:14:01.445Z,69.47
2019-02-25T07:15:01.393Z,69.47
2019-02-25T07:16:01.358Z,68.53
2019-02-25T07:17:01.368Z,68.53
2019-02-25T07:18:01.391Z,68.84
2019-02-25T07:19:01.398Z,68.84
2019-02-25T07:20:01.404Z,68.63
2019-02-25T07:21:01.324Z,69.37
2019-02-25T07:22:01.750Z,69.26
2019-02-25T07:23:03.370Z,68.95
2019-02-25T07:24:01.325Z,69.64
2019-02-25T07:25:01.299Z,68.81
2019-02-25T07:26:01.288Z,68.81
2019-02-25T07:27:01.236Z,68.91
2019-02-25T07:28:01.269Z,69.02
2019-02-25T07:29:03.402Z,69.33
2019-02-25T07:30:01.225Z,68.68
2019-02-25T07:31:01.218Z,68.26
2019-02-25T07:32:01.206Z,67.95
2019-02-25T07:33:01.184Z,68.26
2019-02-25T07:34:01.176Z,68.26
2019-02-25T07:35:01.199Z,68.05
2019-02-25T07:36:01.188Z,68.13
2019-02-25T07:37:01.171Z,68.26
2019-02-25T07:38:01.187Z,67.82
2019-02-25T07:39:01.156Z,68.33
2019-02-25T07:40:01.139Z,68.23
2019-02-25T07:41:01.105Z,68.20
2019-02-25T07:42:01.159Z,67.89
2019-02-25T07:43:01.069Z,67.99
2019-02-25T07:44:01.103Z,67.06
2019-02-25T07:45:01.084Z,67.06
2019-02-25T07:46:01.025Z,66.61
2019-02-25T07:47:01.012Z,66.20
2019-02-25T07:48:01.063Z,65.44
2019-02-25T07:49:01.012Z,65.47
2019-02-25T07:50:01.024Z,65.06
2019-02-25T07:51:00.997Z,65.37
2019-02-25T07:52:01.038Z,65.96
2019-02-25T07:53:00.989Z,65.34
2019-02-25T07:54:00.967Z,65.13
2019-02-25T07:55:01.010Z,64.89
2019-02-25T07:56:02.626Z,64.82
2019-02-25T07:57:00.940Z,64.69
2019-02-25T07:58:00.939Z,65.00
2019-02-25T07:59:00.901Z,65.07
2019-02-25T08:00:00.901Z,65.07
2019-02-25T08:01:00.933Z,64.76
2019-02-25T08:02:00.899Z,64.86
2019-02-25T08:03:00.854Z,64.55
2019-02-25T08:04:00.850Z,64.62
2019-02-25T08:05:00.853Z,64.73
2019-02-25T08:06:00.847Z,64.73
2019-02-25T08:07:00.828Z,64.18
2019-02-25T08:08:00.830Z,64.62
2019-02-25T08:09:00.860Z,63.79
2019-02-25T08:10:00.816Z,64.07
2019-02-25T08:11:00.864Z,64.18
2019-02-25T08:12:00.794Z,64.18
2019-02-25T08:13:00.835Z,64.04
2019-02-25T08:14:00.813Z,64.15
2019-02-25T08:15:00.758Z,64.07
2019-02-25T08:16:00.747Z,64.56
2019-02-25T08:17:00.789Z,63.95
2019-02-25T08:18:00.694Z,64.67
2019-02-25T08:19:00.737Z,64.12
2019-02-25T08:20:00.740Z,63.81
2019-02-25T08:21:00.663Z,63.71
2019-02-25T08:22:00.642Z,63.78
2019-02-25T08:23:00.634Z,63.99
2019-02-25T08:24:00.623Z,63.99
2019-02-25T08:25:00.702Z,63.89
2019-02-25T08:26:00.626Z,63.99
2019-02-25T08:27:00.770Z,63.68
2019-02-25T08:28:00.628Z,63.99
2019-02-25T08:29:00.593Z,63.44
2019-02-25T08:30:00.556Z,63.47
2019-02-25T08:31:00.548Z,63.23
2019-02-25T08:32:00.575Z,63.34
2019-02-25T08:33:00.563Z,63.34
2019-02-25T08:34:00.531Z,63.96
2019-02-25T08:35:00.500Z,63.51
2019-02-25T08:36:00.490Z,63.54
2019-02-25T08:37:02.633Z,62.79
2019-02-25T08:38:00.529Z,62.69
2019-02-25T08:39:00.453Z,62.59
2019-02-25T08:40:00.436Z,62.38
2019-02-25T08:41:00.433Z,61.87
2019-02-25T08:42:00.431Z,61.35
2019-02-25T08:43:00.452Z,61.14
2019-02-25T08:44:00.457Z,60.39
2019-02-25T08:45:00.413Z,60.70
2019-02-25T08:46:00.388Z,61.22
2019-02-25T08:47:00.377Z,61.52
2019-02-25T08:48:02.632Z,61.40
2019-02-25T08:49:00.386Z,61.50
2019-02-25T08:50:00.378Z,61.80
2019-02-25T08:51:00.332Z,61.60
2019-02-25T08:52:00.319Z,61.80
2019-02-25T08:53:00.582Z,62.01
2019-02-25T08:54:00.304Z,61.50
2019-02-25T08:55:00.353Z,61.26
2019-02-25T08:56:00.328Z,61.60
2019-02-25T08:57:00.299Z,61.68
2019-02-25T08:58:00.255Z,61.98
2019-02-25T08:59:00.248Z,61.88
2019-02-25T09:00:00.661Z,61.78
2019-02-25T09:01:00.227Z,61.05
2019-02-25T09:02:00.209Z,60.82
2019-02-25T09:03:00.204Z,60.61
2019-02-25T09:04:00.196Z,60.31
2019-02-25T09:05:00.377Z,60.61
2019-02-25T09:06:00.190Z,60.51
2019-02-25T09:07:00.171Z,60.28
2019-02-25T09:08:00.140Z,59.86
2019-02-25T09:09:00.165Z,60.17
2019-02-25T09:10:00.222Z,60.79
2019-02-25T09:11:00.114Z,60.97
2019-02-25T09:12:00.102Z,60.79
2019-02-25T09:13:00.083Z,61.00
2019-02-25T09:14:00.130Z,60.46
2019-02-25T09:15:00.110Z,60.46
2019-02-25T09:16:00.071Z,59.74
2019-02-25T09:17:00.035Z,59.53
2019-02-25T09:18:00.023Z,59.53
2019-02-25T09:19:00.019Z,59.22
2019-02-25T09:20:00.029Z,59.50
2019-02-25T09:21:00.040Z,58.98
2019-02-25T09:21:59.977Z,58.37
2019-02-25T09:22:59.990Z,58.06
2019-02-25T09:23:59.972Z,57.75
2019-02-25T09:24:59.955Z,57.75
2019-02-25T09:25:59.948Z,57.73
2019-02-25T09:26:59.971Z,58.03
2019-02-25T09:27:59.912Z,58.03
2019-02-25T09:28:59.891Z,57.21
2019-02-25T09:29:59.923Z,57.42
2019-02-25T09:30:59.888Z,57.73
2019-02-25T09:31:59.877Z,57.59
2019-02-25T09:32:59.904Z,57.59
2019-02-25T09:33:59.845Z,57.59
2019-02-25T09:34:59.825Z,57.59
2019-02-25T09:35:59.844Z,57.29
2019-02-25T09:36:59.824Z,57.70
2019-02-25T09:37:59.873Z,56.64
2019-02-25T09:38:59.823Z,55.93
2019-02-25T09:39:59.829Z,56.23
2019-02-25T09:40:59.770Z,55.62
2019-02-25T09:41:59.810Z,55.93
2019-02-25T09:42:59.755Z,54.66
2019-02-25T09:43:59.752Z,55.57
2019-02-25T09:44:59.735Z,55.66
2019-02-25T09:45:59.725Z,55.15
2019-02-25T09:46:59.708Z,54.23
2019-02-25T09:47:59.763Z,53.79
2019-02-25T09:48:59.724Z,53.69
2019-02-25T09:49:59.730Z,53.17
2019-02-25T09:50:59.767Z,54.10
2019-02-25T09:51:59.678Z,52.87
2019-02-25T09:52:59.679Z,53.59
2019-02-25T09:53:59.632Z,52.02
2019-02-25T09:54:59.650Z,51.31
2019-02-25T09:55:59.693Z,51.10
2019-02-25T09:56:59.636Z,51.31
2019-02-25T09:57:59.619Z,50.18
2019-02-25T09:58:59.626Z,50.07
2019-02-25T09:59:59.650Z,50.28
2019-02-25T10:00:59.553Z,49.46
2019-02-25T10:01:59.576Z,50.28
2019-02-25T10:02:59.554Z,49.97
2019-02-25T10:03:59.530Z,49.87
2019-02-25T10:04:59.505Z,49.56
2019-02-25T10:05:59.501Z,48.54
2019-02-25T10:07:02.325Z,48.74
2019-02-25T10:07:59.467Z,48.94
2019-02-25T10:08:59.478Z,49.15
2019-02-25T10:09:59.448Z,48.31
2019-02-25T10:10:59.451Z,48.51
2019-02-25T10:11:59.474Z,48.92
2019-02-25T10:12:59.432Z,48.92
2019-02-25T10:13:59.441Z,47.59
2019-02-25T10:14:59.402Z,46.87
2019-02-25T10:15:59.414Z,46.67
2019-02-25T10:16:59.420Z,47.18
2019-02-25T10:17:59.392Z,46.75
2019-02-25T10:18:59.401Z,47.97
2019-02-25T10:19:59.350Z,46.75
2019-02-25T10:20:59.349Z,47.26
2019-02-25T10:21:59.358Z,46.23
2019-02-25T10:22:59.349Z,46.75
2019-02-25T10:23:59.327Z,46.87
2019-02-25T10:24:59.290Z,45.54
2019-02-25T10:25:59.285Z,45.21
2019-02-25T10:26:59.272Z,45.93
2019-02-25T10:27:59.317Z,44.90
2019-02-25T10:28:59.269Z,44.90
2019-02-25T10:29:59.262Z,43.04
2019-02-25T10:30:59.203Z,38.84
2019-02-25T10:32:00.126Z,38.93
2019-02-25T10:33:00.757Z,38.61
2019-02-25T10:33:59.213Z,38.10
2019-02-25T10:34:59.179Z,39.64
2019-02-25T10:35:59.164Z,39.23
2019-02-25T10:36:59.155Z,38.20
2019-02-25T10:38:00.972Z,37.59
2019-02-25T10:38:59.109Z,37.28
2019-02-25T10:39:59.135Z,37.77
2019-02-25T10:40:59.461Z,38.17
2019-02-25T10:41:59.646Z,38.37
2019-02-25T10:42:59.110Z,38.66
2019-02-25T10:44:00.173Z,38.86
2019-02-25T10:44:59.040Z,38.86
2019-02-25T10:45:59.049Z,39.15
2019-02-25T10:46:59.025Z,38.45
2019-02-25T10:47:59.266Z,38.95
2019-02-25T10:48:59.667Z,39.07
2019-02-25T10:50:00.729Z,38.96
2019-02-25T10:50:59.023Z,39.67
2019-02-25T10:51:59.079Z,39.97
2019-02-25T10:53:03.510Z,39.26
2019-02-25T10:53:58.987Z,39.24
2019-02-25T10:54:58.965Z,38.64
2019-02-25T10:55:58.950Z,38.73
2019-02-25T10:56:58.929Z,39.36
2019-02-25T10:58:01.028Z,40.26
2019-02-25T10:59:00.200Z,39.26
2019-02-25T10:59:58.973Z,39.46
2019-02-25T11:00:58.885Z,40.38
2019-02-25T11:01:58.877Z,39.76
2019-02-25T11:02:58.920Z,40.38
2019-02-25T11:03:58.866Z,40.28
2019-02-25T11:04:58.854Z,39.56
2019-02-25T11:06:00.679Z,40.17
2019-02-25T11:07:00.562Z,39.87
2019-02-25T11:07:58.826Z,39.26
2019-02-25T11:08:58.829Z,39.46
2019-02-25T11:09:58.806Z,40.17
2019-02-25T11:10:58.832Z,39.56
2019-02-25T11:12:00.115Z,39.24
2019-02-25T11:12:59.904Z,38.32
2019-02-25T11:13:59.327Z,38.73
2019-02-25T11:14:58.727Z,38.01
2019-02-25T11:15:58.783Z,37.89
2019-02-25T11:16:58.695Z,37.89
2019-02-25T11:17:58.702Z,38.30
2019-02-25T11:19:00.833Z,36.97
2019-02-25T11:20:00.734Z,38.20
2019-02-25T11:20:59.489Z,38.09
2019-02-25T11:21:58.652Z,36.05
2019-02-25T11:22:58.644Z,37.26
2019-02-25T11:23:59.153Z,36.75
2019-02-25T11:24:58.651Z,36.96
2019-02-25T11:26:00.008Z,36.34
2019-02-25T11:26:59.374Z,35.82
2019-02-25T11:27:58.593Z,34.91
2019-02-25T11:28:58.581Z,33.98
2019-02-25T11:29:58.601Z,34.28
2019-02-25T11:30:58.560Z,34.37
2019-02-25T11:31:58.577Z,33.35
2019-02-25T11:33:00.058Z,33.96
2019-02-25T11:34:00.655Z,34.27
2019-02-25T11:34:58.856Z,35.39
2019-02-25T11:35:58.494Z,35.08
2019-02-25T11:36:59.534Z,34.27
2019-02-25T11:37:59.837Z,34.37
2019-02-25T11:39:00.163Z,35.28
2019-02-25T11:39:59.807Z,34.58
2019-02-25T11:40:59.824Z,33.96
2019-02-25T11:41:58.530Z,33.45
2019-02-25T11:42:58.456Z,33.96
2019-02-25T11:43:58.426Z,33.15
2019-02-25T11:44:59.904Z,33.15
2019-02-25T11:45:58.461Z,32.43
2019-02-25T11:46:58.380Z,33.55
2019-02-25T11:47:58.391Z,33.55
2019-02-25T11:48:58.386Z,32.23
2019-02-25T11:49:58.434Z,32.23
2019-02-25T11:50:58.334Z,31.51
2019-02-25T11:51:58.324Z,32.42
2019-02-25T11:52:58.315Z,31.70
2019-02-25T11:53:59.517Z,32.01
2019-02-25T11:54:58.300Z,32.42
2019-02-25T11:55:58.331Z,32.74
2019-02-25T11:56:58.265Z,32.33
2019-02-25T11:57:58.261Z,33.04
2019-02-25T11:58:58.239Z,33.74
2019-02-25T11:59:58.226Z,33.44
2019-02-25T12:00:58.304Z,32.33
2019-02-25T12:01:58.228Z,31.91
2019-02-25T12:02:58.211Z,32.21
2019-02-25T12:03:58.259Z,32.11
2019-02-25T12:04:58.179Z,33.23
2019-02-25T12:05:58.217Z,32.93
2019-02-25T12:06:58.160Z,33.11
2019-02-25T12:07:58.141Z,32.82
2019-02-25T12:08:58.136Z,33.03
2019-02-25T12:09:58.117Z,33.42
2019-02-25T12:10:58.113Z,33.64
2019-02-25T12:11:58.134Z,33.83
2019-02-25T12:12:58.095Z,33.01
2019-02-25T12:13:58.113Z,31.79
2019-02-25T12:14:58.083Z,32.40
2019-02-25T12:15:58.085Z,33.52
2019-02-25T12:16:58.054Z,33.61
2019-02-25T12:17:58.041Z,33.91
2019-02-25T12:18:58.051Z,35.44
2019-02-25T12:19:58.008Z,34.63
2019-02-25T12:20:58.034Z,34.73
2019-02-25T12:21:58.027Z,34.12
2019-02-25T12:22:57.986Z,34.83
2019-02-25T12:23:57.991Z,34.83
2019-02-25T12:24:57.982Z,34.44
2019-02-25T12:25:57.954Z,33.71
2019-02-25T12:26:57.982Z,33.91
2019-02-25T12:27:57.942Z,33.61
2019-02-25T12:28:57.933Z,33.51
2019-02-25T12:29:57.906Z,34.12
2019-02-25T12:30:57.927Z,33.71
2019-02-25T12:31:57.913Z,33.90
2019-02-25T12:32:57.947Z,33.49
2019-02-25T12:33:57.871Z,33.30
2019-02-25T12:34:57.856Z,33.08
2019-02-25T12:35:57.876Z,33.29
2019-02-25T12:36:57.989Z,33.59
2019-02-25T12:37:57.842Z,33.90
2019-02-25T12:38:57.807Z,34.10
2019-02-25T12:39:57.790Z,33.59
2019-02-25T12:40:57.783Z,34.10
2019-02-25T12:41:57.786Z,33.90
2019-02-25T12:42:57.819Z,33.78
2019-02-25T12:43:57.773Z,34.49
2019-02-25T12:44:57.746Z,32.87
2019-02-25T12:45:57.755Z,33.68
2019-02-25T12:46:57.715Z,32.97
2019-02-25T12:47:57.764Z,32.87
2019-02-25T12:48:57.694Z,31.74
2019-02-25T12:49:57.693Z,31.85
2019-02-25T12:50:57.666Z,31.64
2019-02-25T12:51:57.637Z,31.63
2019-02-25T12:52:57.636Z,31.63
2019-02-25T12:53:57.709Z,32.75